00:49 MTB Telfs - Silz - Moetz
Ort Telfs Datum 10.06.2011 15:41:36
Kategorie MTB
Distanz 19,02 Kilometer Steigung 5,6 Meter Gefälle -5,6 Meter
Gesamt Zeit 00:48:44 Aktiv 00:48:44 Pause 00:00:00
Durchs. Tempo 23,4 km/h Tempo max. 34,2 km/h Tempo min. 10,0 km/h
Kalorien 0 Durchs. HF 135 BPM HF max. 151 BPM
Wetter 18 °C LightRain
Ausrüstung Schwalbe - Nobby Nic vorne
Schwalbe - Racing Ralph hinten
Shimano - HG-93 XT
Specialized - BG S-Works MTB
Specialized - Stumpjumper Comp
SwissStop - Disc17 Avid Juicy
Notiz Telfs - Silz - Moetz ... tw. Nieselregen, locker ... garmin connect
Splits
Distanz (km) Gesamt Zeit Split Zeit Split Tempo Split Tempo Höhenprofil (m)
1,00 00:02:35 00:02:35 00:02:35 23,2 -0,08
2,00 00:04:39 00:02:04 00:02:04 29,0 3,08
3,00 00:06:42 00:02:03 00:02:03 29,3 1,29
4,00 00:08:48 00:02:06 00:02:06 28,6 6,11
5,00 00:11:08 00:02:20 00:02:20 25,7 3,35
6,00 00:12:59 00:01:51 00:01:51 32,4 2,79
7,00 00:14:52 00:01:53 00:01:53 31,9 -2,54
8,00 00:16:46 00:01:54 00:01:54 31,6 3,30
9,00 00:18:52 00:02:06 00:02:06 28,6 -0,30
10,00 00:20:48 00:01:56 00:01:56 31,0 2,00
11,00 00:23:51 00:03:03 00:03:03 19,7 0,83
12,00 00:25:55 00:02:04 00:02:04 29,0 5,41
13,00 00:27:57 00:02:02 00:02:02 29,5 3,16
14,00 00:30:00 00:02:03 00:02:03 29,3 4,35
15,00 00:39:49 00:09:49 00:09:49 6,1 2,25
16,00 00:42:07 00:02:18 00:02:18 26,1 -5,01
17,00 00:44:15 00:02:08 00:02:08 28,1 7,88
18,00 00:46:21 00:02:06 00:02:06 28,6 -11,83
19,00 00:48:41 00:02:20 00:02:20 25,7 4,77